PIA A313 near Lahore on Jun 20th 2016, engine shut down in flight

Last Update: June 21, 2016 / 21:14:54 GMT/Zulu time

Bookmark this article
Incident Facts

Date of incident
Jun 20, 2016

Classification
Incident

Flight number
PK-853

Destination
Lahore, Pakistan

Aircraft Registration
AP-BEQ

Aircraft Type
Airbus A310-300

ICAO Type Designator
A313

Airport ICAO Code
OPLA

A PIA Pakistan International Airlines Airbus A310-300, registration AP-BEQ performing flight PK-853 from Islamabad to Lahore (Pakistan), was holding at Lahore when the crew reported a problem with the right hand engine (CF6), shut the engine down and declared emergency. The aircraft continued for a safe landing on Lahore's runway 18L.

The occurrence aircraft remained on the ground for 13 hours, then resumed service.

Lahore Airport features a CATIIIb capable ILS for runway 36R, a CATI ILS for runway 36L and non precision approaches for runways 18L/R.

Metars:
OPLA 202055Z 14007KT 4000 FU NSC 31/23 Q1000 NOSIG
OPLA 202025Z 14007KT 4000 FU FEW100 31/23 Q1000
OPLA 201955Z 14009KT 4000 FU FEW100 31/23 Q1000 NOSIG
OPLA 201925Z 13008KT 4000 FU FEW100 32/23 Q1000
OPLA 201855Z 12006KT 4000 FU FEW100 32/23 Q1000 NOSIG
OPLA 201825Z 10007KT 4000 FU FEW100 32/23 Q1000
OPLA 201755Z 10008KT 4000 FU FEW100 32/23 Q1000 NOSIG
OPLA 201725Z 11006KT 4000 FU FEW100 32/23 Q1000
OPLA 201655Z 12006KT 4000 FU FEW100 33/23 Q1000 NOSIG
OPLA 201625Z 10006KT 4000 FU SCT100 33/23 Q0999
Incident Facts

Date of incident
Jun 20, 2016

Classification
Incident

Flight number
PK-853

Destination
Lahore, Pakistan

Aircraft Registration
AP-BEQ

Aircraft Type
Airbus A310-300

ICAO Type Designator
A313

Airport ICAO Code
OPLA

This article is published under license from Avherald.com. © of text by Avherald.com.
Article source

You can read 4 more free articles without a subscription.

Subscribe now and continue reading without any limits!

Are you a subscriber?
Login
Subscribe

Read unlimited articles and receive our daily update briefing. Gain better insights into what is happening in commercial aviation safety.

Free newsletter

Want to know more and stay ahead? Get our free weekly newsletter and join 4930 existing subscribers.

By subscribing, you accept our terms and conditions and confirm that you've read our privacy policy.

Send tip

Support AeroInside by sending a small tip amount.

Related articles

Newest articles

Subscribe today

Are you researching aviation incidents? Get access to AeroInside Insights, unlimited read access and receive the daily newsletter.

Pick your plan and subscribe

Partner

Blockaviation logo

A new way to document and demonstrate airworthiness compliance and aircraft value. Find out more.

Virtual Speech logo

ELITE Simulation Solutions is a leading global provider of Flight Simulation Training Devices, IFR training software as well as flight controls and related services. Find out more.

Get updates

Never miss an article from AeroInside. Subscribe to our free weekly newsletter and join 4930 existing subscribers.

By subscribing, you accept our terms and conditions and that you've read our privacy policy.

AeroInside Blog
Popular aircraft
Airbus A320
Boeing 737-800
Boeing 737-800 MAX
Popular airlines
American Airlines
United
Delta
Air Canada
Lufthansa
British Airways